Time;durP1;ratioP1;P1;durP2;ratioP2;P2;SDS_P1;SDS_P2;PMS_P1;PMS_P2;Temp;Humidity;BMP_temperature;BMP_pressure;BME280_temperature;BME280_humidity;BME280_pressure;Samples;Min_cycle;Max_cycle;Signal;HPM_P1;HPM_P2
2022/06/29 00:01:59;;;;;;;0.10;0.10;;;;;;;15.25;100.00;99352.41;7395352;19;20011;-82
2022/06/29 00:04:25;;;;;;;2.30;0.20;;;;;;;15.23;100.00;99337.38;7395297;19;20047;-81
2022/06/29 00:06:51;;;;;;;0.10;0.10;;;;;;;15.23;100.00;99337.38;7393023;19;20011;-81
2022/06/29 00:09:18;;;;;;;0.80;0.35;;;;;;;15.23;100.00;99331.78;7396031;19;20019;-81
2022/06/29 00:11:44;;;;;;;0.30;0.20;;;;;;;15.24;100.00;99339.69;7394018;19;20029;-81
2022/06/29 00:14:10;;;;;;;1.08;0.30;;;;;;;15.25;100.00;99334.81;7395007;19;20349;-83
2022/06/29 00:16:36;;;;;;;0.30;0.30;;;;;;;15.28;100.00;99333.78;7392678;19;20488;-82
2022/06/29 00:19:02;;;;;;;2.33;0.43;;;;;;;15.31;100.00;99327.16;7394551;19;20027;-82
2022/06/29 00:21:28;;;;;;;1.00;0.30;;;;;;;15.30;100.00;99329.19;7394640;19;20085;-81
2022/06/29 00:23:55;;;;;;;0.30;0.20;;;;;;;15.31;100.00;99332.75;7393109;19;20312;-81
2022/06/29 00:26:21;;;;;;;3.50;0.22;;;;;;;15.34;100.00;99326.09;7393004;19;20025;-81
2022/06/29 00:28:47;;;;;;;0.57;0.40;;;;;;;15.34;100.00;99328.91;7394746;19;20014;-82
2022/06/29 00:31:13;;;;;;;0.10;0.10;;;;;;;15.29;100.00;99324.09;7392622;19;20015;-82
2022/06/29 00:33:39;;;;;;;0.40;0.20;;;;;;;15.25;100.00;99323.59;7396301;19;20345;-82
2022/06/29 00:36:05;;;;;;;0.30;0.20;;;;;;;15.24;100.00;99322.84;7393548;19;20014;-82
2022/06/29 00:38:32;;;;;;;0.20;0.20;;;;;;;15.23;100.00;99323.34;7393221;19;20026;-82
2022/06/29 00:40:58;;;;;;;0.32;0.22;;;;;;;15.21;100.00;99321.06;7394205;19;20015;-81
2022/06/29 00:43:24;;;;;;;2.83;0.30;;;;;;;15.17;100.00;99326.22;7393391;19;20037;-81
2022/06/29 00:45:50;;;;;;;1.02;0.38;;;;;;;15.19;100.00;99324.41;7392357;19;20022;-82
2022/06/29 00:48:17;;;;;;;0.25;0.25;;;;;;;15.19;100.00;99332.06;7392484;19;20476;-82
2022/06/29 00:50:45;;;;;;;0.50;0.38;;;;;;;15.19;100.00;99340.47;7392992;19;20021;-81
2022/06/29 00:53:15;;;;;;;5.68;1.27;;;;;;;15.10;100.00;99330.31;7393980;19;20102;-83
2022/06/29 00:55:42;;;;;;;0.15;0.15;;;;;;;15.12;100.00;99322.16;7393299;19;20364;-81
2022/06/29 00:58:10;;;;;;;0.47;0.10;;;;;;;15.11;100.00;99325.50;7392835;19;20053;-81
2022/06/29 01:00:36;;;;;;;0.90;0.47;;;;;;;15.12;100.00;99327.75;7393125;19;20027;-82
2022/06/29 01:03:03;;;;;;;2.20;0.65;;;;;;;15.10;100.00;99324.72;7391365;19;20022;-81
2022/06/29 01:05:31;;;;;;;1.30;0.80;;;;;;;15.12;100.00;99327.00;7391843;19;20006;-81
2022/06/29 01:07:58;;;;;;;1.40;0.68;;;;;;;15.09;100.00;99322.44;7389528;19;20049;-81
2022/06/29 01:10:24;;;;;;;0.10;0.10;;;;;;;15.11;100.00;99315.03;7398023;19;20027;-81
2022/06/29 01:12:51;;;;;;;1.90;1.00;;;;;;;15.12;100.00;99310.94;7390048;19;20018;-81
2022/06/29 01:15:18;;;;;;;5.05;0.47;;;;;;;15.10;100.00;99310.69;7392569;19;20014;-81
2022/06/29 01:17:44;;;;;;;0.20;0.20;;;;;;;15.11;100.00;99315.03;7389951;19;20033;-81
2022/06/29 01:20:11;;;;;;;0.20;0.20;;;;;;;15.13;100.00;99323.69;7397299;19;20019;-81
2022/06/29 01:22:39;;;;;;;4.75;0.40;;;;;;;15.10;100.00;99307.91;7390511;19;20018;-81
2022/06/29 01:25:06;;;;;;;7.18;0.30;;;;;;;15.10;100.00;99296.66;7391476;19;20035;-80
2022/06/29 01:27:32;;;;;;;0.98;0.65;;;;;;;15.09;100.00;99283.91;7391588;19;20106;-81
2022/06/29 01:29:58;;;;;;;0.10;0.10;;;;;;;15.10;100.00;99265.81;7394907;19;20014;-81
2022/06/29 01:32:25;;;;;;;0.30;0.30;;;;;;;15.08;100.00;99282.41;7390736;19;20468;-81
2022/06/29 01:34:52;;;;;;;0.32;0.20;;;;;;;15.10;100.00;99291.06;7396757;19;20018;-81
2022/06/29 01:37:18;;;;;;;0.30;0.30;;;;;;;15.07;100.00;99280.88;7389983;19;20535;-81
2022/06/29 01:39:44;;;;;;;2.92;0.28;;;;;;;15.04;100.00;99279.13;7395576;19;20022;-80
2022/06/29 01:42:11;;;;;;;3.58;0.45;;;;;;;15.03;100.00;99280.41;7392528;19;20082;-81
2022/06/29 01:44:37;;;;;;;0.95;0.65;;;;;;;14.99;100.00;99274.31;7392596;19;20082;-81
2022/06/29 01:47:04;;;;;;;11.77;0.35;;;;;;;14.96;100.00;99292.19;7390294;19;20356;-81
2022/06/29 01:49:30;;;;;;;0.35;0.32;;;;;;;14.96;100.00;99292.19;7393658;19;20472;-81
2022/06/29 01:51:56;;;;;;;1.50;0.40;;;;;;;14.91;100.00;99290.19;7391282;19;20037;-81
2022/06/29 01:54:22;;;;;;;0.88;0.40;;;;;;;14.92;100.00;99291.69;7392233;19;20023;-81
2022/06/29 01:56:49;;;;;;;1.20;0.50;;;;;;;14.92;100.00;99291.69;7390401;19;20041;-81
2022/06/29 01:59:15;;;;;;;0.20;0.20;;;;;;;14.91;100.00;99289.41;7393895;19;20120;-81
2022/06/29 02:01:41;;;;;;;0.57;0.13;;;;;;;14.94;100.00;99288.38;7390029;19;20010;-81
2022/06/29 02:04:07;;;;;;;0.43;0.15;;;;;;;14.99;100.00;99276.34;7390271;19;20029;-82
2022/06/29 02:06:33;;;;;;;0.10;0.10;;;;;;;15.06;100.00;99273.75;7389698;19;20006;-81
2022/06/29 02:09:00;;;;;;;0.10;0.03;;;;;;;15.07;100.00;99283.69;7391341;19;20014;-80
2022/06/29 02:11:26;;;;;;;0.98;0.75;;;;;;;15.08;100.00;99293.63;7390340;19;20043;-81
2022/06/29 02:13:52;;;;;;;0.20;0.10;;;;;;;15.06;100.00;99293.38;7391135;19;20457;-81
2022/06/29 02:16:18;;;;;;;7.68;0.30;;;;;;;15.04;100.00;99281.94;7388622;19;20027;-81
2022/06/29 02:18:45;;;;;;;1.38;0.20;;;;;;;15.05;100.00;99289.06;7391447;19;20025;-80
2022/06/29 02:21:11;;;;;;;0.30;0.10;;;;;;;15.02;100.00;99292.13;7390117;19;20026;-80
2022/06/29 02:23:37;;;;;;;4.55;0.25;;;;;;;15.03;100.00;99283.19;7389325;19;20074;-80
2022/06/29 02:26:03;;;;;;;1.08;0.20;;;;;;;15.05;100.00;99275.03;7389173;19;20488;-80
2022/06/29 02:28:29;;;;;;;0.95;0.55;;;;;;;15.06;100.00;99282.16;7390780;19;20010;-80
2022/06/29 02:36:25;;;;;;;0.30;0.17;;;;;;;15.07;100.00;99264.06;7396388;19;20024;-80
2022/06/29 02:38:51;;;;;;;16.75;0.60;;;;;;;15.09;100.00;99258.69;7397788;19;20018;-80
2022/06/29 02:41:17;;;;;;;2.72;0.28;;;;;;;15.07;100.00;99247.22;7395959;19;20105;-80
2022/06/29 02:43:45;;;;;;;4.28;0.30;;;;;;;15.08;100.00;99237.53;7398373;19;20019;-80
2022/06/29 02:46:11;;;;;;;0.30;0.30;;;;;;;15.10;100.00;99206.16;7395740;19;20046;-80
2022/06/29 02:48:37;;;;;;;0.88;0.30;;;;;;;15.06;100.00;99226.09;7397981;19;20396;-80
2022/06/29 02:51:04;;;;;;;0.35;0.20;;;;;;;15.04;100.00;99247.50;7395652;19;20010;-79
2022/06/29 02:53:30;;;;;;;1.15;0.40;;;;;;;15.05;100.00;99249.78;7397768;19;20038;-79
2022/06/29 02:55:56;;;;;;;3.83;0.60;;;;;;;15.03;100.00;99246.75;7396594;19;20411;-80
2022/06/29 02:58:23;;;;;;;0.30;0.20;;;;;;;15.01;100.00;99249.31;7395605;19;20425;-80
2022/06/29 03:00:49;;;;;;;0.35;0.30;;;;;;;15.03;100.00;99235.53;7397310;19;20010;-80
2022/06/29 03:03:15;;;;;;;0.47;0.30;;;;;;;15.03;100.00;99238.34;7397471;19;20070;-79
2022/06/29 03:05:42;;;;;;;0.90;0.50;;;;;;;15.05;100.00;99235.78;7396634;19;20011;-79
2022/06/29 03:08:08;;;;;;;0.30;0.30;;;;;;;15.05;100.00;99227.34;7396860;19;20014;-79
2022/06/29 03:10:34;;;;;;;4.20;0.50;;;;;;;15.01;100.00;99226.88;7397089;19;20014;-79
2022/06/29 03:13:00;;;;;;;0.10;0.10;;;;;;;14.99;100.00;99223.06;7393543;19;20022;-80
2022/06/29 03:15:27;;;;;;;0.10;0.10;;;;;;;14.90;100.00;99226.94;7396999;19;20025;-79
2022/06/29 03:17:54;;;;;;;0.75;0.10;;;;;;;14.91;100.00;99222.88;7392582;19;20018;-80
2022/06/29 03:20:21;;;;;;;0.28;0.28;;;;;;;14.87;100.00;99221.63;7399263;19;20019;-80
2022/06/29 03:22:47;;;;;;;0.10;0.10;;;;;;;14.90;100.00;99224.16;7394647;19;20018;-80
2022/06/29 03:25:14;;;;;;;0.30;0.15;;;;;;;14.90;100.00;99215.75;7396628;19;20041;-80
2022/06/29 03:27:41;;;;;;;2.17;0.68;;;;;;;14.90;100.00;99204.53;7393125;19;20015;-80
2022/06/29 03:30:08;;;;;;;1.45;0.73;;;;;;;14.86;100.00;99204.03;7400427;19;20136;-80
2022/06/29 03:32:34;;;;;;;0.30;0.10;;;;;;;14.89;100.00;99203.03;7394164;19;20030;-80
2022/06/29 03:35:01;;;;;;;2.92;0.75;;;;;;;14.87;100.00;99210.44;7399336;19;20371;-81
2022/06/29 03:37:27;;;;;;;0.30;0.28;;;;;;;14.86;100.00;99209.66;7393730;19;20047;-81
2022/06/29 03:39:53;;;;;;;0.52;0.15;;;;;;;14.80;100.00;99208.16;7397939;19;20014;-80
2022/06/29 03:42:19;;;;;;;0.43;0.43;;;;;;;14.81;100.00;99215.31;7394815;19;20334;-80
2022/06/29 03:44:45;;;;;;;4.00;0.90;;;;;;;14.84;100.00;99208.66;7396301;19;20090;-80
2022/06/29 03:47:11;;;;;;;0.25;0.20;;;;;;;14.82;100.00;99211.97;7391703;19;20471;-80
2022/06/29 03:49:38;;;;;;;2.65;0.40;;;;;;;14.79;100.00;99215.81;7397331;19;20360;-79
2022/06/29 03:52:05;;;;;;;0.50;0.20;;;;;;;14.75;100.00;99215.34;7394133;19;20011;-79
2022/06/29 03:54:32;;;;;;;1.52;0.60;;;;;;;14.76;100.00;99205.66;7397008;19;20092;-79
2022/06/29 03:56:58;;;;;;;7.63;0.65;;;;;;;14.76;100.00;99210.50;7393111;19;20014;-79
2022/06/29 03:59:24;;;;;;;1.05;0.20;;;;;;;14.77;100.00;99209.97;7398707;19;20039;-79
2022/06/29 04:01:50;;;;;;;0.20;0.10;;;;;;;14.79;100.00;99206.66;7393793;19;20015;-80
2022/06/29 04:04:16;;;;;;;0.90;0.38;;;;;;;14.79;100.00;99210.22;7394710;19;20368;-80
2022/06/29 04:06:42;;;;;;;1.08;0.40;;;;;;;14.74;100.00;99205.41;7394968;19;20015;-79
2022/06/29 04:09:09;;;;;;;2.67;0.52;;;;;;;14.72;100.00;99210.78;7395663;19;20362;-79
2022/06/29 04:11:52;;;;;;;3.38;0.70;;;;;;;14.76;100.00;99213.31;7392728;19;20014;-79
2022/06/29 04:14:20;;;;;;;1.17;0.43;;;;;;;14.78;100.00;99217.09;7394071;19;20496;-79
2022/06/29 04:16:47;;;;;;;0.20;0.10;;;;;;;14.75;100.00;99226.53;7392362;19;20014;-80
2022/06/29 04:19:13;;;;;;;1.00;0.35;;;;;;;14.77;100.00;99220.44;7395080;19;20018;-80
2022/06/29 04:21:39;;;;;;;0.85;0.32;;;;;;;14.76;100.00;99218.91;7394818;19;20015;-79
2022/06/29 04:24:06;;;;;;;5.85;1.63;;;;;;;14.77;100.00;99221.19;7394844;19;20086;-79
2022/06/29 04:26:32;;;;;;;3.03;0.73;;;;;;;14.77;100.00;99218.38;7392369;19;20014;-79
2022/06/29 04:28:58;;;;;;;4.00;1.55;;;;;;;14.76;100.00;99225.28;7394491;19;20383;-79
2022/06/29 04:31:24;;;;;;;3.55;2.03;;;;;;;14.78;100.00;99219.16;7393461;19;20433;-79
2022/06/29 04:33:50;;;;;;;0.70;0.38;;;;;;;14.76;100.00;99216.09;7396237;19;20460;-79
2022/06/29 04:36:17;;;;;;;7.95;1.05;;;;;;;14.76;100.00;99228.09;7393593;19;20018;-80
2022/06/29 04:38:43;;;;;;;4.70;1.48;;;;;;;14.78;100.00;99230.34;7393427;19;20089;-80
2022/06/29 04:41:09;;;;;;;11.60;1.35;;;;;;;14.79;100.00;99220.69;7392218;19;20136;-80
2022/06/29 04:43:35;;;;;;;2.03;1.10;;;;;;;14.81;100.00;99213.25;7392662;19;20089;-80
2022/06/29 04:46:19;;;;;;;1.55;0.40;;;;;;;14.82;100.00;99214.78;7393542;19;20456;-80
2022/06/29 04:48:46;;;;;;;4.03;0.57;;;;;;;14.82;100.00;99209.19;7393605;19;20033;-80
2022/06/29 04:51:13;;;;;;;0.57;0.45;;;;;;;14.81;100.00;99218.84;7392278;19;20017;-79
2022/06/29 04:53:39;;;;;;;4.35;0.63;;;;;;;14.83;100.00;99216.31;7393745;19;20082;-79
2022/06/29 04:56:05;;;;;;;0.38;0.20;;;;;;;14.88;100.00;99215.50;7394140;19;20026;-79
2022/06/29 04:58:31;;;;;;;0.68;0.25;;;;;;;14.90;100.00;99215.00;7390559;19;20015;-79
2022/06/29 05:00:58;;;;;;;0.10;0.10;;;;;;;14.87;100.00;99216.81;7391867;19;20108;-80
2022/06/29 05:03:24;;;;;;;0.30;0.30;;;;;;;14.90;100.00;99223.41;7393471;19;20022;-80
2022/06/29 05:05:50;;;;;;;0.13;0.13;;;;;;;14.91;100.00;99222.13;7391243;19;20002;-83
2022/06/29 05:08:16;;;;;;;1.95;0.63;;;;;;;14.93;100.00;99234.34;7392240;19;20322;-84
2022/06/29 05:10:43;;;;;;;1.10;0.30;;;;;;;14.97;100.00;99237.63;7391172;19;20011;-84
2022/06/29 05:13:09;;;;;;;0.20;0.10;;;;;;;15.02;100.00;99238.88;7392594;19;20472;-81
2022/06/29 05:15:35;;;;;;;0.30;0.20;;;;;;;15.06;100.00;99234.50;7391391;19;20019;-81
2022/06/29 05:18:01;;;;;;;0.45;0.22;;;;;;;15.10;100.00;99234.97;7390963;19;20014;-81
2022/06/29 05:20:28;;;;;;;0.13;0.10;;;;;;;15.13;100.00;99227.56;7393038;19;20081;-81
2022/06/29 05:22:54;;;;;;;0.17;0.13;;;;;;;15.13;100.00;99222.72;7392677;19;20019;-81
2022/06/29 05:25:20;;;;;;;0.30;0.30;;;;;;;15.17;100.00;99228.81;7391104;19;20348;-82
2022/06/29 05:27:47;;;;;;;0.20;0.20;;;;;;;15.23;100.00;99227.97;7389893;19;20014;-81
2022/06/29 05:30:14;;;;;;;4.90;0.30;;;;;;;15.34;100.00;99233.50;7396832;19;20031;-81
2022/06/29 05:32:41;;;;;;;1.10;0.28;;;;;;;15.37;100.00;99224.81;7391977;19;20022;-81
2022/06/29 05:35:08;;;;;;;0.22;0.20;;;;;;;15.42;100.00;99238.00;7397265;19;20027;-81
2022/06/29 05:37:34;;;;;;;0.30;0.30;;;;;;;15.51;100.00;99229.28;7391372;19;20018;-81
2022/06/29 05:40:00;;;;;;;1.23;0.30;;;;;;;15.49;100.00;99225.47;7394842;19;20010;-81
2022/06/29 05:42:26;;;;;;;0.10;0.10;;;;;;;15.48;100.00;99230.34;7390999;19;20018;-82
2022/06/29 05:44:53;;;;;;;1.65;0.30;;;;;;;15.45;100.00;99222.22;7390832;19;20041;-81
2022/06/29 05:47:19;;;;;;;0.47;0.32;;;;;;;15.44;100.00;99217.91;7389236;19;20037;-81
2022/06/29 05:49:45;;;;;;;0.10;0.00;;;;;;;15.41;100.00;99213.28;7394103;19;20031;-82
2022/06/29 05:52:11;;;;;;;0.60;0.30;;;;;;;15.46;100.00;99229.34;7389773;19;20480;-81
2022/06/29 05:54:38;;;;;;;6.20;0.40;;;;;;;15.51;100.00;99228.53;7390528;19;20045;-81
2022/06/29 05:57:05;;;;;;;0.50;0.10;;;;;;;15.47;100.00;99222.44;7390333;19;20345;-81
2022/06/29 05:59:31;;;;;;;2.92;0.20;;;;;;;15.42;100.00;99226.06;7393158;19;20011;-81
2022/06/29 06:01:58;;;;;;;0.20;0.10;;;;;;;15.42;100.00;99226.06;7389994;19;20019;-82
2022/06/29 06:04:25;;;;;;;0.22;0.20;;;;;;;15.45;100.00;99225.00;7390250;19;20029;-81
2022/06/29 06:06:52;;;;;;;1.05;0.40;;;;;;;15.35;100.00;99223.81;7391164;19;20349;-81
2022/06/29 06:09:25;;;;;;;0.75;0.25;;;;;;;15.33;100.00;99229.19;7395150;19;20029;-81
2022/06/29 06:11:51;;;;;;;1.27;0.65;;;;;;;15.38;100.00;99231.16;7396051;19;20023;-81
2022/06/29 06:14:17;;;;;;;6.03;0.77;;;;;;;15.36;100.00;99226.09;7403819;19;20035;-82
2022/06/29 06:16:43;;;;;;;1.95;0.30;;;;;;;15.39;100.00;99218.66;7407225;19;20006;-82
2022/06/29 06:19:09;;;;;;;1.38;0.20;;;;;;;15.37;100.00;99226.84;7400347;19;20347;-82
2022/06/29 06:21:35;;;;;;;1.65;0.65;;;;;;;15.40;100.00;99217.41;7396813;19;20041;-82
2022/06/29 06:24:01;;;;;;;0.10;0.10;;;;;;;15.30;100.00;99221.81;7397672;19;20333;-81
2022/06/29 06:26:28;;;;;;;1.02;0.40;;;;;;;15.27;100.00;99215.19;7395707;19;20024;-81
2022/06/29 06:28:54;;;;;;;3.30;0.75;;;;;;;15.41;100.00;99221.72;7398002;19;20487;-81
2022/06/29 06:31:20;;;;;;;0.10;0.10;;;;;;;15.52;100.00;99213.22;7398388;19;20026;-82
2022/06/29 06:33:46;;;;;;;0.43;0.20;;;;;;;15.73;100.00;99219.88;7398943;19;20417;-82
2022/06/29 06:36:13;;;;;;;0.17;0.17;;;;;;;15.84;100.00;99222.59;7396464;19;20011;-81
2022/06/29 06:38:39;;;;;;;6.43;0.65;;;;;;;15.84;100.00;99216.97;7397558;19;20018;-82
2022/06/29 06:41:24;;;;;;;0.90;0.47;;;;;;;15.97;100.00;99224.72;7398672;19;20018;-81
2022/06/29 06:43:56;;;;;;;0.47;0.30;;;;;;;16.11;100.00;99229.94;7396662;19;20022;-82
2022/06/29 06:46:23;;;;;;;1.65;0.30;;;;;;;16.18;100.00;99222.94;7397422;19;20376;-82
2022/06/29 06:48:51;;;;;;;0.65;0.15;;;;;;;16.21;100.00;99227.53;7398158;19;20313;-82
2022/06/29 06:51:18;;;;;;;2.28;0.32;;;;;;;16.24;100.00;99224.41;7397266;19;20019;-82
2022/06/29 06:53:44;;;;;;;1.85;0.60;;;;;;;16.17;100.00;99230.63;7396807;19;20014;-82
2022/06/29 06:56:11;;;;;;;0.20;0.20;;;;;;;16.21;100.00;99228.28;7396121;19;20030;-82
2022/06/29 06:58:37;;;;;;;2.10;0.20;;;;;;;16.36;100.00;99228.59;7396915;19;20081;-82
2022/06/29 07:01:04;;;;;;;2.47;0.40;;;;;;;16.41;100.00;99229.81;7396257;19;20468;-81
2022/06/29 07:03:31;;;;;;;5.35;0.17;;;;;;;16.38;100.00;99231.66;7397235;19;20078;-81
2022/06/29 07:05:59;;;;;;;1.30;0.32;;;;;;;16.33;100.00;99226.84;7396444;19;20015;-81
2022/06/29 07:08:26;;;;;;;1.20;0.20;;;;;;;16.29;100.00;99234.81;7396619;19;20010;-81
2022/06/29 07:10:52;;;;;;;5.68;0.20;;;;;;;16.18;100.00;99231.38;7395648;19;20010;-81
2022/06/29 07:13:18;;;;;;;0.85;0.20;;;;;;;16.33;100.00;99229.66;7395523;19;20417;-81
2022/06/29 07:15:44;;;;;;;5.25;0.30;;;;;;;16.66;100.00;99232.06;7395462;19;20037;-81
2022/06/29 07:18:10;;;;;;;2.38;0.10;;;;;;;16.88;100.00;99233.03;7397120;19;20031;-81
2022/06/29 07:20:36;;;;;;;0.10;0.00;;;;;;;17.10;100.00;99232.69;7393132;19;20320;-81
2022/06/29 07:23:03;;;;;;;3.92;0.20;;;;;;;17.03;100.00;99233.31;7395319;19;20022;-81
2022/06/29 07:25:29;;;;;;;1.95;0.20;;;;;;;16.96;100.00;99231.09;7395398;19;20037;-81
2022/06/29 07:27:55;;;;;;;0.63;0.63;;;;;;;17.01;100.00;99230.28;7392905;19;20018;-81
2022/06/29 07:30:21;;;;;;;1.00;0.32;;;;;;;17.10;100.00;99224.25;7399342;19;20508;-81
2022/06/29 07:32:47;;;;;;;0.68;0.30;;;;;;;17.24;100.00;99232.19;7392698;19;20015;-81
2022/06/29 07:35:13;;;;;;;1.50;0.35;;;;;;;17.34;100.00;99229.75;7396528;19;20039;-81
2022/06/29 07:37:39;;;;;;;1.17;0.20;;;;;;;17.32;100.00;99237.97;7393144;19;20032;-81
2022/06/29 07:40:06;;;;;;;1.75;0.35;;;;;;;17.29;100.00;99227.78;7400503;19;20331;-81
2022/06/29 07:42:35;;;;;;;4.72;0.45;;;;;;;17.08;100.00;99224.03;7395932;19;20774;-81
2022/06/29 07:45:02;;;;;;;2.47;0.30;;;;;;;16.95;100.00;99233.19;7394213;19;20010;-80
2022/06/29 07:47:28;;;;;;;0.80;0.20;;;;;;;16.86;100.00;99227.19;7392070;19;20028;-80
2022/06/29 07:49:55;;;;;;;3.40;0.40;;;;;;;16.92;100.00;99227.84;7398331;19;20014;-80
2022/06/29 07:52:21;;;;;;;1.33;0.10;;;;;;;16.90;100.00;99228.38;7392953;19;20086;-80
2022/06/29 07:54:47;;;;;;;0.40;0.15;;;;;;;16.96;100.00;99236.72;7394127;19;20019;-80
2022/06/29 07:57:13;;;;;;;4.57;0.75;;;;;;;17.00;100.00;99228.75;7394380;19;20018;-81
2022/06/29 07:59:39;;;;;;;1.17;0.28;;;;;;;17.00;100.00;99228.75;7398538;19;20010;-81
2022/06/29 08:02:06;;;;;;;1.83;0.32;;;;;;;17.05;100.00;99230.72;7393796;19;20014;-80
2022/06/29 08:04:32;;;;;;;3.28;0.35;;;;;;;16.98;100.00;99232.09;7393688;19;20025;-81
2022/06/29 08:06:59;;;;;;;2.90;0.32;;;;;;;17.08;100.00;99232.47;7393595;19;20034;-86
2022/06/29 08:09:25;;;;;;;4.20;0.20;;;;;;;17.02;100.00;99229.72;7395753;19;20480;-86
2022/06/29 08:11:51;;;;;;;1.55;0.40;;;;;;;17.13;100.00;99226.00;7393017;19;20034;-85
2022/06/29 08:14:17;;;;;;;0.68;0.20;;;;;;;17.30;100.00;99229.31;7396591;19;20018;-86
2022/06/29 08:16:44;;;;;;;1.45;0.35;;;;;;;17.29;100.00;99225.72;7392699;19;20015;-86
2022/06/29 08:19:10;;;;;;;4.28;0.75;;;;;;;17.17;100.00;99234.88;7397709;19;20015;-86
2022/06/29 08:21:36;;;;;;;0.52;0.38;;;;;;;17.17;100.00;99234.88;7395399;19;20070;-86
2022/06/29 08:24:02;;;;;;;6.22;0.20;;;;;;;17.21;100.00;99241.72;7395457;19;20010;-86
2022/06/29 08:26:28;;;;;;;0.45;0.25;;;;;;;17.14;100.00;99244.38;7395029;19;20021;-85
2022/06/29 08:28:54;;;;;;;2.05;0.60;;;;;;;17.24;100.00;99246.25;7395849;19;20086;-86
2022/06/29 08:31:20;;;;;;;0.20;0.20;;;;;;;17.50;100.00;99247.66;7395011;19;20023;-87
2022/06/29 08:33:46;;;;;;;1.77;0.20;;;;;;;18.07;100.00;99242.00;7396605;19;20519;-87
2022/06/29 08:36:13;;;;;;;0.60;0.20;;;;;;;18.35;100.00;99240.66;7395105;19;20029;-86
2022/06/29 08:38:39;;;;;;;1.38;0.40;;;;;;;18.47;100.00;99250.47;7394571;19;20395;-87
2022/06/29 08:41:07;;;;;;;2.95;0.70;;;;;;;18.72;100.00;99246.06;7394949;19;20011;-86
2022/06/29 08:43:33;;;;;;;2.13;0.43;;;;;;;18.84;100.00;99241.69;7393144;19;20065;-85
2022/06/29 08:45:59;;;;;;;2.85;0.15;;;;;;;19.35;100.00;99239.97;7394637;19;20018;-88
2022/06/29 08:48:25;;;;;;;0.68;0.38;;;;;;;19.76;100.00;99236.34;7394297;19;20459;-86
2022/06/29 08:50:53;;;;;;;0.90;0.00;;;;;;;19.80;100.00;99233.16;7395572;19;20018;-85
2022/06/29 08:53:21;;;;;;;0.20;0.00;;;;;;;20.07;100.00;99235.25;7396018;19;20477;-88
2022/06/29 08:55:50;;;;;;;3.25;0.20;;;;;;;20.18;100.00;99228.53;7393553;19;20044;-87
2022/06/29 08:58:22;;;;;;;1.65;0.10;;;;;;;20.18;100.00;99237.03;7394641;19;20015;-86
2022/06/29 09:00:49;;;;;;;1.17;0.68;;;;;;;20.17;100.00;99241.91;7393126;19;20464;-88
2022/06/29 09:03:18;;;;;;;0.13;0.13;;;;;;;20.34;100.00;99235.81;7393264;19;20026;-88
2022/06/29 09:05:49;;;;;;;0.75;0.30;;;;;;;20.69;100.00;99242.75;7393798;19;20024;-87
2022/06/29 09:08:15;;;;;;;;;;;;;;;20.38;100.00;99250.34;7394885;19;20365;-88
2022/06/29 09:10:42;;;;;;;8.55;0.47;;;;;;;20.03;100.00;99239.75;7394235;19;20395;-88
2022/06/29 09:13:08;;;;;;;0.57;0.17;;;;;;;19.99;100.00;99253.50;7392022;19;20006;-88
2022/06/29 09:15:37;;;;;;;0.17;0.10;;;;;;;20.35;100.00;99243.75;7393256;19;20014;-85
2022/06/29 09:18:21;;;;;;;0.30;0.10;;;;;;;20.15;100.00;99247.38;7391051;19;20015;-86
2022/06/29 09:20:52;;;;;;;3.10;0.17;;;;;;;19.70;100.00;99251.94;7392469;19;20011;-87
2022/06/29 09:23:19;;;;;;;0.20;0.20;;;;;;;19.27;100.00;99250.44;7392047;19;20035;-87
2022/06/29 09:25:45;;;;;;;1.27;0.20;;;;;;;19.20;100.00;99256.75;7391906;19;20410;-88
2022/06/29 09:28:25;;;;;;;2.20;0.10;;;;;;;19.16;100.00;99252.75;7394300;19;20479;-85
2022/06/29 09:30:54;;;;;;;1.95;0.30;;;;;;;18.84;100.00;99259.38;7392196;19;20014;-84
2022/06/29 09:33:22;;;;;;;0.80;0.03;;;;;;;18.56;100.00;99266.94;7395149;19;20022;-86
2022/06/29 09:36:07;;;;;;;0.30;0.17;;;;;;;18.21;100.00;99270.19;7391763;19;20074;-86
2022/06/29 09:38:34;;;;;;;1.08;0.28;;;;;;;18.26;100.00;99272.88;7394978;19;20052;-85
2022/06/29 09:41:03;;;;;;;0.52;0.10;;;;;;;18.54;100.00;99269.50;7393833;19;20078;-86
2022/06/29 09:43:31;;;;;;;0.38;0.20;;;;;;;18.78;100.00;99274.91;7392852;19;20021;-87
2022/06/29 09:46:00;;;;;;;1.38;0.20;;;;;;;18.94;100.00;99268.13;7393495;19;20010;-87
2022/06/29 09:48:28;;;;;;;1.27;0.17;;;;;;;19.01;100.00;99261.81;7394709;19;20014;-87
2022/06/29 09:50:55;;;;;;;1.98;0.63;;;;;;;19.20;100.00;99262.41;7392246;19;20465;-87
2022/06/29 09:53:38;;;;;;;1.98;0.10;;;;;;;19.42;100.00;99261.88;7391649;19;20023;-87
2022/06/29 09:56:06;;;;;;;0.10;0.10;;;;;;;19.56;100.00;99266.16;7392230;19;20019;-90
2022/06/29 09:58:44;;;;;;;0.20;0.10;;;;;;;19.68;100.00;99261.72;7392173;19;20007;-88
2022/06/29 10:03:57;;;;;;;0.47;0.10;;;;;;;19.76;100.00;99266.69;7393781;19;20019;-86
2022/06/29 10:06:24;;;;;;;7.18;0.32;;;;;;;20.02;100.00;99267.25;7392965;19;20019;-86
2022/06/29 10:08:52;;;;;;;1.25;0.17;;;;;;;20.43;100.00;99266.41;7394211;19;20014;-86
2022/06/29 10:15:04;;;;;;;0.85;0.13;;;;;;;20.88;100.00;99266.59;7390728;19;20014;-86
2022/06/29 10:17:49;;;;;;;2.10;0.25;;;;;;;20.81;100.00;99278.63;7389554;19;20007;-86
2022/06/29 10:20:35;;;;;;;2.00;0.13;;;;;;;20.70;100.00;99262.00;7396777;19;20356;-85
2022/06/29 10:23:02;;;;;;;3.03;0.30;;;;;;;20.56;100.00;99260.63;7390750;19;20030;-85
2022/06/29 10:25:28;;;;;;;0.20;0.17;;;;;;;20.55;100.00;99261.94;7391949;19;20468;-85
2022/06/29 10:28:26;;;;;;;0.30;0.13;;;;;;;20.51;100.00;99267.19;7389358;19;20383;-85
2022/06/29 10:30:54;;;;;;;2.30;0.20;;;;;;;20.69;100.00;99266.16;7389073;19;20074;-85
2022/06/29 10:33:34;;;;;;;4.15;0.30;;;;;;;21.03;100.00;99251.75;7389165;19;20011;-84
2022/06/29 10:36:06;;;;;;;1.42;0.30;;;;;;;21.19;100.00;99258.97;7389472;19;20010;-84
2022/06/29 10:38:57;;;;;;;0.70;0.10;;;;;;;21.33;100.00;99253.91;7390003;19;20372;-84
2022/06/29 10:44:08;;;;;;;1.10;0.10;;;;;;;22.04;100.00;99253.53;7391147;19;20022;-84
2022/06/29 10:46:56;;;;;;;7.97;0.10;;;;;;;22.30;100.00;99241.75;7390445;19;20015;-84
2022/06/29 10:49:23;;;;;;;7.00;0.25;;;;;;;22.16;100.00;99236.84;7391994;19;20014;-84
2022/06/29 10:51:49;;;;;;;0.32;0.10;;;;;;;21.89;100.00;99245.78;7388375;19;20025;-84
2022/06/29 10:54:32;;;;;;;0.10;0.00;;;;;;;21.76;100.00;99242.38;7389158;19;20437;-85
2022/06/29 10:56:59;;;;;;;0.10;0.10;;;;;;;21.81;100.00;99235.75;7392668;19;20044;-84
2022/06/29 10:59:35;;;;;;;0.65;0.28;;;;;;;21.75;100.00;99238.03;7400764;19;20472;-84
2022/06/29 11:02:08;;;;;;;0.90;0.13;;;;;;;21.77;100.00;99241.06;7395663;19;20037;-84
2022/06/29 11:04:34;;;;;;;3.63;0.40;;;;;;;21.88;100.00;99240.69;7397055;19;20073;-84
2022/06/29 11:12:51;;;;;;;1.75;0.20;;;;;;;21.60;100.00;99232.38;7396529;19;20318;-84
2022/06/29 11:15:47;;;;;;;0.45;0.10;;;;;;;21.47;100.00;99229.72;7396538;19;20021;-85
2022/06/29 11:18:29;;;;;;;0.20;0.10;;;;;;;21.39;100.00;99224.06;7395673;19;20015;-84
2022/06/29 11:21:04;;;;;;;0.10;0.00;;;;;;;21.66;100.00;99224.44;7396316;19;20501;-84
2022/06/29 11:23:35;;;;;;;1.80;0.40;;;;;;;21.34;100.00;99227.81;7398044;19;20033;-84
2022/06/29 11:26:03;;;;;;;0.80;0.43;;;;;;;21.10;100.00;99222.69;7397162;19;20380;-83
2022/06/29 11:28:32;;;;;;;0.20;0.10;;;;;;;20.95;100.00;99223.41;7399233;19;20022;-84
2022/06/29 11:31:05;;;;;;;0.90;0.20;;;;;;;21.55;100.00;99216.34;7398082;19;20014;-83
2022/06/29 11:33:36;;;;;;;2.53;0.20;;;;;;;21.88;100.00;99218.00;7399471;19;20022;-86
2022/06/29 11:36:16;;;;;;;0.10;0.00;;;;;;;22.07;100.00;99229.69;7396075;19;20026;-85
2022/06/29 11:38:48;;;;;;;2.65;0.20;;;;;;;22.09;100.00;99226.31;7399628;19;20015;-85
2022/06/29 11:41:23;;;;;;;0.52;0.00;;;;;;;21.79;100.00;99221.38;7398818;19;20022;-84
2022/06/29 11:44:04;;;;;;;0.75;0.25;;;;;;;21.42;100.00;99222.19;7396216;19;20018;-85
2022/06/29 11:46:32;;;;;;;0.65;0.47;;;;;;;21.21;100.00;99221.56;7396805;19;20035;-84
2022/06/29 11:51:56;;;;;;;0.32;0.08;;;;;;;22.47;100.00;99210.69;7397405;19;20384;-83